createdAt,value
2023-11-18T00:00:54.034Z,4.35
2023-11-18T00:03:20.463Z,3.83
2023-11-18T00:05:46.957Z,3.45
2023-11-18T00:08:13.292Z,3.67
2023-11-18T00:10:39.704Z,3.97
2023-11-18T00:13:06.065Z,4.13
2023-11-18T00:15:32.466Z,3.97
2023-11-18T00:17:58.824Z,4.05
2023-11-18T00:20:25.262Z,3.50
2023-11-18T00:22:51.773Z,4.47
2023-11-18T00:25:18.182Z,4.28
2023-11-18T00:27:44.663Z,4.47
2023-11-18T00:30:11.481Z,4.20
2023-11-18T00:32:38.542Z,3.83
2023-11-18T00:35:05.461Z,4.10
2023-11-18T00:37:31.974Z,4.13
2023-11-18T00:39:58.487Z,3.83
2023-11-18T00:42:24.854Z,4.07
2023-11-18T00:44:51.219Z,4.57
2023-11-18T00:47:17.674Z,4.28
2023-11-18T00:49:44.180Z,4.45
2023-11-18T00:52:10.563Z,3.65
2023-11-18T00:54:36.899Z,4.43
2023-11-18T00:57:03.442Z,4.20
2023-11-18T00:59:29.861Z,4.10
2023-11-18T01:01:56.378Z,3.97
2023-11-18T01:04:22.750Z,4.85
2023-11-18T01:06:49.165Z,5.07
2023-11-18T01:09:15.520Z,4.38
2023-11-18T01:12:06.830Z,4.20
2023-11-18T01:14:28.199Z,4.32
2023-11-18T01:16:54.568Z,4.13
2023-11-18T01:19:21.016Z,4.05
2023-11-18T01:21:47.425Z,4.30
2023-11-18T01:24:13.775Z,3.83
2023-11-18T01:26:40.136Z,3.97
2023-11-18T01:29:06.497Z,3.72
2023-11-18T01:31:40.112Z,3.35
2023-11-18T01:34:14.156Z,3.88
2023-11-18T01:36:40.467Z,3.85
2023-11-18T01:39:06.817Z,3.45
2023-11-18T01:41:33.266Z,3.50
2023-11-18T01:43:59.625Z,3.47
2023-11-18T01:46:26.365Z,3.60
2023-11-18T01:48:53.379Z,3.42
2023-11-18T01:51:20.332Z,3.88
2023-11-18T01:53:48.788Z,3.10
2023-11-18T01:56:15.268Z,4.03
2023-11-18T01:58:41.704Z,3.58
2023-11-18T02:01:08.254Z,3.60
2023-11-18T02:03:37.819Z,3.78
2023-11-18T02:06:05.458Z,3.47
2023-11-18T02:08:33.789Z,3.50
2023-11-18T02:11:06.574Z,3.90
2023-11-18T02:13:37.087Z,3.92
2023-11-18T02:16:05.272Z,3.70
2023-11-18T02:18:31.883Z,3.60
2023-11-18T02:21:00.217Z,3.90
2023-11-18T02:23:27.465Z,4.05
2023-11-18T02:25:54.353Z,4.10
2023-11-18T02:28:20.854Z,3.83
2023-11-18T02:30:47.584Z,3.90
2023-11-18T02:33:26.011Z,4.10
2023-11-18T02:36:04.089Z,4.03
2023-11-18T02:38:37.490Z,3.90
2023-11-18T02:41:10.353Z,3.35
2023-11-18T02:43:39.288Z,3.95
2023-11-18T02:46:06.801Z,3.97
2023-11-18T02:48:33.689Z,4.10
2023-11-18T02:51:00.469Z,3.53
2023-11-18T02:53:26.814Z,4.15
2023-11-18T02:55:53.377Z,3.35
2023-11-18T02:58:20.633Z,3.72
2023-11-18T03:00:47.222Z,3.70
2023-11-18T03:03:13.725Z,4.38
2023-11-18T03:05:40.196Z,3.90
2023-11-18T03:08:06.815Z,3.58
2023-11-18T03:10:33.825Z,3.97
2023-11-18T03:13:00.188Z,4.53
2023-11-18T03:15:26.585Z,4.00
2023-11-18T03:17:53.185Z,4.63
2023-11-18T03:20:21.132Z,3.65
2023-11-18T03:25:14.724Z,3.72
2023-11-18T03:27:41.421Z,3.90
2023-11-18T03:30:08.900Z,3.83
2023-11-18T03:32:39.899Z,4.82
2023-11-18T03:35:07.784Z,4.00
2023-11-18T03:37:34.170Z,4.70
2023-11-18T03:40:00.515Z,4.18
2023-11-18T03:42:26.897Z,4.38
2023-11-18T03:44:53.257Z,4.25
2023-11-18T03:47:19.688Z,4.35
2023-11-18T03:49:46.121Z,4.20
2023-11-18T03:52:12.467Z,4.78
2023-11-18T03:54:38.827Z,4.45
2023-11-18T03:57:05.442Z,4.47
2023-11-18T03:59:31.790Z,4.50
2023-11-18T04:01:58.302Z,4.38
2023-11-18T04:04:24.706Z,4.32
2023-11-18T04:06:51.122Z,3.80
2023-11-18T04:09:17.557Z,4.30
2023-11-18T04:11:43.924Z,4.40
2023-11-18T04:14:10.301Z,4.63
2023-11-18T04:16:37.089Z,4.00
2023-11-18T04:19:03.903Z,4.70
2023-11-18T04:21:30.539Z,4.32
2023-11-18T04:23:56.872Z,4.03
2023-11-18T04:26:23.329Z,4.82
2023-11-18T04:28:49.682Z,4.22
2023-11-18T04:31:16.052Z,4.07
2023-11-18T04:33:42.608Z,4.10
2023-11-18T04:36:10.991Z,4.43
2023-11-18T04:38:37.410Z,4.93
2023-11-18T04:41:04.101Z,4.65
2023-11-18T04:43:38.750Z,4.32
2023-11-18T04:46:09.372Z,6.68
2023-11-18T04:48:38.838Z,6.53
2023-11-18T04:51:07.287Z,5.45
2023-11-18T04:53:33.606Z,4.85
2023-11-18T04:56:00.102Z,4.60
2023-11-18T04:58:26.553Z,4.90
2023-11-18T05:00:53.013Z,5.80
2023-11-18T05:03:19.678Z,5.78
2023-11-18T05:05:46.111Z,5.25
2023-11-18T05:08:20.723Z,4.60
2023-11-18T05:10:48.800Z,5.25
2023-11-18T05:13:15.696Z,5.53
2023-11-18T05:15:42.196Z,5.28
2023-11-18T05:18:08.938Z,5.65
2023-11-18T05:20:35.363Z,5.18
2023-11-18T05:23:01.717Z,5.72
2023-11-18T05:25:28.216Z,4.75
2023-11-18T05:27:54.653Z,4.13
2023-11-18T05:30:21.019Z,4.47
2023-11-18T05:32:47.482Z,4.60
2023-11-18T05:35:13.847Z,3.95
2023-11-18T05:37:40.386Z,4.80
2023-11-18T05:40:07.322Z,4.28
2023-11-18T05:42:40.273Z,5.07
2023-11-18T05:45:07.606Z,4.95
2023-11-18T05:47:37.633Z,4.88
2023-11-18T05:50:04.434Z,4.90
2023-11-18T05:52:30.789Z,4.70
2023-11-18T05:54:57.129Z,4.90
2023-11-18T05:57:23.584Z,5.05
2023-11-18T05:59:49.917Z,4.45
2023-11-18T06:02:16.495Z,4.93
2023-11-18T06:04:42.887Z,5.00
2023-11-18T06:07:09.229Z,4.85
2023-11-18T06:09:35.662Z,5.43
2023-11-18T06:12:02.018Z,5.50
2023-11-18T06:14:28.336Z,5.07
2023-11-18T06:16:54.857Z,4.53
2023-11-18T06:19:22.294Z,5.63
2023-11-18T06:21:48.670Z,4.72
2023-11-18T06:24:15.152Z,6.07
2023-11-18T06:26:41.496Z,5.95
2023-11-18T06:29:07.930Z,6.22
2023-11-18T06:31:34.323Z,6.20
2023-11-18T06:34:00.698Z,5.13
2023-11-18T06:36:27.040Z,5.50
2023-11-18T06:38:54.215Z,6.20
2023-11-18T06:41:22.254Z,5.78
2023-11-18T06:43:48.650Z,5.72
2023-11-18T06:46:15.025Z,5.78
2023-11-18T06:48:41.437Z,5.85
2023-11-18T06:51:08.759Z,5.75
2023-11-18T06:53:35.563Z,5.22
2023-11-18T06:56:02.077Z,5.60
2023-11-18T06:58:28.418Z,5.47
2023-11-18T07:00:56.147Z,5.45
2023-11-18T07:03:22.623Z,5.20
2023-11-18T07:05:49.395Z,5.45
2023-11-18T07:08:15.842Z,5.40
2023-11-18T07:10:42.225Z,5.47
2023-11-18T07:13:08.719Z,5.38
2023-11-18T07:15:35.768Z,5.13
2023-11-18T07:18:02.439Z,5.78
2023-11-18T07:20:28.922Z,5.75
2023-11-18T07:22:55.278Z,5.22
2023-11-18T07:25:21.658Z,4.85
2023-11-18T07:27:48.048Z,5.93
2023-11-18T07:30:14.543Z,5.35
2023-11-18T07:32:40.944Z,5.80
2023-11-18T07:35:07.728Z,5.30
2023-11-18T07:37:34.086Z,5.47
2023-11-18T07:40:00.514Z,5.55
2023-11-18T07:42:27.102Z,6.68
2023-11-18T07:44:53.490Z,7.20
2023-11-18T07:47:19.897Z,5.95
2023-11-18T07:49:47.386Z,6.28
2023-11-18T07:52:13.713Z,6.30
2023-11-18T07:54:40.058Z,5.93
2023-11-18T07:57:06.458Z,6.97
2023-11-18T07:59:32.908Z,6.88
2023-11-18T08:01:59.457Z,6.97
2023-11-18T08:04:25.871Z,5.68
2023-11-18T08:06:52.311Z,6.10
2023-11-18T08:09:18.650Z,6.60
2023-11-18T08:11:46.299Z,6.38
2023-11-18T08:14:12.713Z,6.53
2023-11-18T08:16:39.262Z,6.38
2023-11-18T08:19:05.733Z,6.50
2023-11-18T08:21:32.128Z,6.47
2023-11-18T08:23:58.504Z,5.47
2023-11-18T08:26:24.874Z,6.68
2023-11-18T08:28:51.252Z,7.30
2023-11-18T08:31:17.674Z,6.47
2023-11-18T08:33:44.420Z,6.20
2023-11-18T08:36:11.181Z,6.32
2023-11-18T08:38:37.638Z,6.35
2023-11-18T08:41:04.345Z,6.57
2023-11-18T08:43:30.682Z,6.22
2023-11-18T08:45:58.437Z,6.70
2023-11-18T08:48:25.949Z,9.85
2023-11-18T08:50:52.319Z,6.18
2023-11-18T08:53:18.686Z,6.72
2023-11-18T08:55:45.443Z,6.43
2023-11-18T08:58:12.828Z,7.18
2023-11-18T09:00:39.292Z,8.68
2023-11-18T09:03:05.871Z,6.88
2023-11-18T09:05:33.898Z,6.60
2023-11-18T09:08:00.403Z,7.40
2023-11-18T09:10:27.811Z,8.55
2023-11-18T09:12:55.937Z,8.63
2023-11-18T09:15:22.951Z,7.40
2023-11-18T09:17:50.252Z,6.65
2023-11-18T09:20:16.866Z,8.23
2023-11-18T09:22:43.278Z,7.90
2023-11-18T09:25:10.743Z,7.57
2023-11-18T09:27:37.371Z,5.78
2023-11-18T09:30:04.072Z,6.22
2023-11-18T09:32:30.542Z,5.90
2023-11-18T09:34:56.946Z,5.93
2023-11-18T09:37:23.327Z,6.43
2023-11-18T09:39:49.826Z,10.38
2023-11-18T09:42:16.601Z,7.55
2023-11-18T09:44:43.054Z,5.95
2023-11-18T09:47:09.607Z,6.65
2023-11-18T09:49:44.614Z,6.10
2023-11-18T09:52:17.525Z,6.45
2023-11-18T09:54:55.545Z,6.20
2023-11-18T09:57:37.844Z,6.30
2023-11-18T10:00:05.638Z,6.22
2023-11-18T10:02:32.572Z,7.00
2023-11-18T10:05:01.137Z,6.55
2023-11-18T10:07:28.236Z,6.35
2023-11-18T10:09:58.431Z,7.35
2023-11-18T10:12:25.517Z,6.28
2023-11-18T10:14:52.184Z,7.00
2023-11-18T10:17:19.161Z,6.28
2023-11-18T10:19:59.412Z,6.88
2023-11-18T10:22:27.875Z,6.50
2023-11-18T10:24:58.171Z,6.00
2023-11-18T10:27:25.830Z,5.85
2023-11-18T10:32:23.338Z,7.43
2023-11-18T10:34:50.909Z,6.22
2023-11-18T10:39:49.740Z,5.50
2023-11-18T10:42:16.075Z,6.80
2023-11-18T10:44:55.918Z,8.00
2023-11-18T10:47:22.332Z,7.90
2023-11-18T10:49:52.050Z,6.88
2023-11-18T10:52:20.439Z,7.20
2023-11-18T10:54:54.249Z,6.22
2023-11-18T10:57:21.476Z,7.10
2023-11-18T11:00:01.175Z,7.47
2023-11-18T11:02:32.232Z,6.88
2023-11-18T11:04:58.671Z,6.25
2023-11-18T11:07:26.912Z,7.35
2023-11-18T11:09:53.288Z,6.80
2023-11-18T11:12:21.029Z,6.45
2023-11-18T11:14:58.548Z,6.43
2023-11-18T11:17:28.800Z,7.15
2023-11-18T11:20:08.347Z,6.22
2023-11-18T11:22:40.619Z,5.60
2023-11-18T11:25:06.897Z,6.03
2023-11-18T11:27:56.785Z,5.50
2023-11-18T11:30:24.069Z,5.57
2023-11-18T11:32:53.351Z,5.25
2023-11-18T11:35:32.713Z,6.13
2023-11-18T11:38:00.555Z,5.28
2023-11-18T11:40:28.498Z,5.30
2023-11-18T11:42:55.222Z,5.63
2023-11-18T11:45:25.639Z,5.20
2023-11-18T11:47:53.516Z,6.07
2023-11-18T11:50:27.252Z,5.78
2023-11-18T11:53:00.596Z,6.40
2023-11-18T11:55:46.183Z,5.88
2023-11-18T11:58:27.402Z,5.55
2023-11-18T12:00:55.721Z,5.65
2023-11-18T12:03:25.431Z,5.50
2023-11-18T12:05:56.143Z,5.32
2023-11-18T12:08:23.919Z,5.13
2023-11-18T12:10:55.091Z,4.90
2023-11-18T12:13:21.544Z,4.80
2023-11-18T12:15:57.147Z,4.60
2023-11-18T12:18:26.536Z,3.80
2023-11-18T12:20:53.009Z,3.80
2023-11-18T12:23:19.474Z,3.42
2023-11-18T12:25:45.916Z,4.10
2023-11-18T12:28:16.831Z,4.25
2023-11-18T12:30:45.447Z,4.07
2023-11-18T12:33:11.985Z,3.88
2023-11-18T12:36:07.616Z,4.43
2023-11-18T12:38:45.813Z,3.75
2023-11-18T12:41:36.315Z,3.03
2023-11-18T12:44:15.511Z,3.17
2023-11-18T12:46:55.309Z,3.50
2023-11-18T12:49:26.006Z,3.50
2023-11-18T12:51:56.625Z,3.67
2023-11-18T12:54:25.283Z,4.28
2023-11-18T12:56:52.652Z,5.45
2023-11-18T12:59:19.114Z,5.13
2023-11-18T13:01:48.286Z,9.95
2023-11-18T13:04:14.979Z,6.03
2023-11-18T13:06:41.592Z,4.80
2023-11-18T13:09:08.125Z,4.32
2023-11-18T13:11:34.556Z,3.70
2023-11-18T13:14:01.239Z,3.20
2023-11-18T13:16:27.728Z,3.00
2023-11-18T13:18:54.152Z,3.17
2023-11-18T13:21:21.053Z,2.90
2023-11-18T13:23:49.242Z,3.83
2023-11-18T13:26:16.734Z,3.28
2023-11-18T13:28:43.620Z,3.63
2023-11-18T13:31:11.053Z,4.85
2023-11-18T13:33:40.581Z,5.50
2023-11-18T13:36:08.194Z,4.65
2023-11-18T13:38:34.662Z,4.22
2023-11-18T13:41:01.126Z,3.63
2023-11-18T13:43:27.525Z,3.95
2023-11-18T13:45:54.087Z,3.10
2023-11-18T13:48:22.443Z,3.40
2023-11-18T13:50:48.963Z,3.90
2023-11-18T13:53:15.385Z,4.72
2023-11-18T13:55:41.941Z,4.50
2023-11-18T13:58:08.391Z,5.45
2023-11-18T14:00:34.898Z,5.43
2023-11-18T14:03:02.356Z,4.32
2023-11-18T14:07:55.737Z,3.17
2023-11-18T14:10:23.529Z,3.22
2023-11-18T14:13:03.354Z,2.92
2023-11-18T14:15:30.423Z,3.20
2023-11-18T14:17:56.865Z,3.50
2023-11-18T14:20:23.456Z,3.72
2023-11-18T14:22:52.183Z,3.42
2023-11-18T14:25:19.645Z,3.67
2023-11-18T14:27:45.996Z,3.70
2023-11-18T14:30:13.197Z,6.20
2023-11-18T14:32:39.575Z,5.38
2023-11-18T14:35:07.282Z,7.50
2023-11-18T14:37:34.006Z,5.22
2023-11-18T14:40:00.373Z,6.15
2023-11-18T14:42:26.942Z,5.15
2023-11-18T14:44:53.277Z,4.63
2023-11-18T14:47:19.622Z,4.00
2023-11-18T14:49:46.023Z,4.68
2023-11-18T14:52:12.357Z,4.07
2023-11-18T14:54:38.700Z,5.53
2023-11-18T14:57:05.378Z,5.97
2023-11-18T14:59:31.774Z,3.33
2023-11-18T15:01:58.633Z,4.18
2023-11-18T15:04:25.081Z,7.28
2023-11-18T15:06:51.501Z,6.03
2023-11-18T15:09:17.939Z,5.65
2023-11-18T15:11:44.311Z,4.32
2023-11-18T15:14:10.709Z,4.38
2023-11-18T15:16:37.191Z,5.50
2023-11-18T15:19:04.620Z,5.20
2023-11-18T15:21:31.129Z,4.53
2023-11-18T15:23:57.552Z,4.70
2023-11-18T15:26:23.930Z,4.80
2023-11-18T15:28:50.291Z,3.75
2023-11-18T15:31:16.671Z,3.55
2023-11-18T15:33:43.028Z,3.75
2023-11-18T15:36:10.611Z,3.72
2023-11-18T15:38:37.124Z,3.90
2023-11-18T15:41:03.729Z,3.40
2023-11-18T15:43:30.148Z,3.20
2023-11-18T15:45:56.469Z,4.00
2023-11-18T15:48:22.942Z,3.22
2023-11-18T15:50:49.435Z,3.78
2023-11-18T15:53:16.481Z,4.32
2023-11-18T15:55:43.285Z,5.70
2023-11-18T15:58:09.699Z,5.78
2023-11-18T16:00:36.265Z,5.22
2023-11-18T16:03:03.538Z,4.95
2023-11-18T16:05:30.530Z,5.40
2023-11-18T16:07:57.325Z,6.03
2023-11-18T16:10:26.711Z,5.43
2023-11-18T16:12:57.981Z,5.88
2023-11-18T16:15:28.817Z,5.22
2023-11-18T16:17:59.234Z,6.40
2023-11-18T16:20:28.041Z,6.07
2023-11-18T16:22:55.801Z,4.93
2023-11-18T16:27:50.812Z,4.70
2023-11-18T16:30:18.712Z,5.68
2023-11-18T16:32:48.186Z,7.47
2023-11-18T16:35:16.335Z,5.40
2023-11-18T16:37:44.143Z,5.25
2023-11-18T16:40:12.517Z,5.70
2023-11-18T16:42:39.009Z,6.32
2023-11-18T16:45:05.809Z,5.78
2023-11-18T16:47:32.409Z,6.13
2023-11-18T16:50:03.618Z,6.65
2023-11-18T16:52:31.239Z,6.20
2023-11-18T16:54:57.891Z,6.43
2023-11-18T16:57:24.330Z,6.15
2023-11-18T16:59:50.671Z,6.38
2023-11-18T17:02:17.074Z,5.32
2023-11-18T17:04:43.573Z,7.75
2023-11-18T17:07:10.118Z,7.03
2023-11-18T17:09:36.577Z,7.05
2023-11-18T17:12:03.021Z,11.15
2023-11-18T17:14:29.481Z,9.40
2023-11-18T17:16:55.986Z,10.65
2023-11-18T17:19:22.427Z,7.38
2023-11-18T17:21:48.806Z,5.60
2023-11-18T17:24:15.197Z,5.25
2023-11-18T17:26:41.594Z,5.35
2023-11-18T17:29:08.031Z,3.67
2023-11-18T17:31:35.815Z,3.88
2023-11-18T17:36:29.281Z,4.97
2023-11-18T17:38:55.609Z,4.45
2023-11-18T17:41:22.349Z,4.97
2023-11-18T17:43:49.772Z,5.85
2023-11-18T17:46:17.015Z,4.50
2023-11-18T17:48:43.736Z,5.95
2023-11-18T17:51:10.761Z,5.57
2023-11-18T17:53:37.269Z,5.43
2023-11-18T17:56:03.917Z,5.32
2023-11-18T17:58:30.311Z,5.70
2023-11-18T18:00:56.818Z,5.45
2023-11-18T18:03:23.241Z,5.18
2023-11-18T18:05:49.691Z,4.70
2023-11-18T18:08:16.180Z,4.95
2023-11-18T18:10:42.530Z,4.93
2023-11-18T18:13:08.984Z,5.10
2023-11-18T18:15:36.733Z,4.35
2023-11-18T18:20:29.631Z,4.57
2023-11-18T18:22:55.984Z,5.13
2023-11-18T18:25:22.379Z,5.32
2023-11-18T18:27:48.887Z,4.60
2023-11-18T18:30:15.362Z,4.95
2023-11-18T18:32:42.101Z,4.88
2023-11-18T18:35:09.142Z,5.30
2023-11-18T18:37:35.522Z,6.07
2023-11-18T18:40:01.967Z,4.75
2023-11-18T18:42:28.300Z,5.97
2023-11-18T18:44:54.752Z,5.75
2023-11-18T18:47:22.378Z,4.45
2023-11-18T18:49:50.033Z,4.82
2023-11-18T18:52:16.496Z,5.32
2023-11-18T18:54:43.825Z,5.95
2023-11-18T18:57:10.211Z,5.43
2023-11-18T18:59:36.705Z,4.70
2023-11-18T19:02:03.104Z,4.63
2023-11-18T19:04:29.453Z,3.97
2023-11-18T19:06:55.868Z,4.15
2023-11-18T19:09:22.217Z,4.28
2023-11-18T19:11:49.144Z,4.97
2023-11-18T19:14:15.730Z,4.53
2023-11-18T19:16:43.665Z,4.28
2023-11-18T19:19:10.190Z,4.43
2023-11-18T19:21:36.560Z,4.57
2023-11-18T19:24:02.898Z,4.70
2023-11-18T19:26:29.342Z,4.85
2023-11-18T19:28:55.770Z,4.85
2023-11-18T19:31:22.126Z,5.70
2023-11-18T19:33:48.536Z,6.03
2023-11-18T19:36:16.010Z,7.40
2023-11-18T19:38:43.537Z,10.45
2023-11-18T19:41:09.957Z,7.93
2023-11-18T19:43:36.415Z,7.50
2023-11-18T19:46:02.953Z,6.65
2023-11-18T19:48:29.353Z,4.40
2023-11-18T19:50:55.952Z,5.85
2023-11-18T19:53:22.379Z,3.85
2023-11-18T19:55:48.946Z,4.13
2023-11-18T19:58:15.439Z,3.33
2023-11-18T20:00:41.869Z,3.63
2023-11-18T20:03:08.419Z,3.50
2023-11-18T20:05:35.679Z,3.42
2023-11-18T20:08:02.515Z,3.28
2023-11-18T20:10:28.997Z,3.05
2023-11-18T20:12:55.345Z,3.42
2023-11-18T20:15:22.503Z,3.38
2023-11-18T20:17:49.336Z,2.55
2023-11-18T20:20:15.812Z,2.50
2023-11-18T20:22:42.378Z,3.13
2023-11-18T20:25:08.992Z,2.78
2023-11-18T20:27:35.708Z,3.05
2023-11-18T20:30:05.328Z,2.97
2023-11-18T20:32:37.264Z,2.10
2023-11-18T20:35:04.133Z,2.10
2023-11-18T20:37:30.675Z,2.38
2023-11-18T20:39:57.008Z,2.42
2023-11-18T20:42:24.177Z,1.95
2023-11-18T20:44:50.806Z,2.33
2023-11-18T20:47:19.748Z,1.85
2023-11-18T20:49:46.119Z,2.72
2023-11-18T20:52:12.553Z,3.17
2023-11-18T20:54:38.957Z,3.50
2023-11-18T20:57:05.495Z,2.25
2023-11-18T20:59:32.292Z,2.30
2023-11-18T21:01:59.305Z,2.08
2023-11-18T21:04:25.857Z,2.03
2023-11-18T21:06:53.247Z,1.80
2023-11-18T21:09:19.630Z,1.85
2023-11-18T21:11:46.118Z,1.80
2023-11-18T21:14:12.485Z,1.88
2023-11-18T21:16:39.063Z,1.70
2023-11-18T21:19:05.650Z,2.00
2023-11-18T21:21:32.060Z,2.10
2023-11-18T21:23:58.507Z,2.00
2023-11-18T21:26:25.055Z,2.20
2023-11-18T21:28:52.137Z,3.00
2023-11-18T21:31:18.500Z,2.28
2023-11-18T21:33:44.999Z,3.53
2023-11-18T21:36:11.365Z,2.30
2023-11-18T21:38:37.734Z,2.35
2023-11-18T21:41:04.285Z,2.45
2023-11-18T21:43:30.651Z,2.42
2023-11-18T21:45:57.903Z,1.90
2023-11-18T21:48:24.297Z,2.65
2023-11-18T21:50:50.678Z,1.42
2023-11-18T21:53:17.468Z,1.92
2023-11-18T21:55:43.815Z,1.95
2023-11-18T21:58:10.461Z,1.92
2023-11-18T22:00:45.092Z,1.63
2023-11-18T22:03:12.254Z,2.47
2023-11-18T22:08:05.483Z,2.60
2023-11-18T22:10:31.840Z,2.38
2023-11-18T22:12:58.210Z,1.80
2023-11-18T22:15:24.528Z,2.33
2023-11-18T22:17:50.993Z,2.35
2023-11-18T22:20:18.237Z,2.35
2023-11-18T22:22:45.361Z,2.10
2023-11-18T22:25:11.735Z,2.60
2023-11-18T22:27:38.203Z,2.08
2023-11-18T22:30:05.080Z,2.38
2023-11-18T22:32:31.540Z,2.50
2023-11-18T22:34:59.149Z,2.70
2023-11-18T22:37:25.617Z,2.83
2023-11-18T22:39:52.211Z,2.40
2023-11-18T22:42:18.961Z,2.20
2023-11-18T22:44:45.364Z,3.03
2023-11-18T22:47:20.326Z,2.92
2023-11-18T22:49:46.681Z,2.95
2023-11-18T22:52:13.342Z,3.67
2023-11-18T22:54:39.675Z,4.32
2023-11-18T22:57:06.811Z,2.70
2023-11-18T22:59:33.258Z,2.72
2023-11-18T23:02:00.516Z,2.50
2023-11-18T23:04:26.865Z,2.00
2023-11-18T23:06:53.194Z,2.17
2023-11-18T23:09:19.548Z,2.10
2023-11-18T23:11:45.884Z,2.22
2023-11-18T23:14:12.278Z,1.90
2023-11-18T23:16:38.679Z,2.33
2023-11-18T23:19:05.137Z,2.72
2023-11-18T23:21:31.563Z,2.47
2023-11-18T23:23:58.002Z,2.25
2023-11-18T23:26:24.339Z,2.50
2023-11-18T23:28:50.674Z,2.15
2023-11-18T23:31:17.159Z,2.42
2023-11-18T23:33:43.853Z,2.30
2023-11-18T23:36:10.221Z,2.25
2023-11-18T23:38:37.542Z,2.13
2023-11-18T23:41:04.791Z,2.15
2023-11-18T23:43:31.199Z,2.35
2023-11-18T23:45:57.708Z,2.50
2023-11-18T23:48:24.061Z,2.28
2023-11-18T23:50:50.470Z,2.33
2023-11-18T23:53:17.580Z,2.38
2023-11-18T23:55:45.027Z,2.25
2023-11-18T23:58:11.363Z,2.38
